Time;durP1;ratioP1;P1;durP2;ratioP2;P2;SDS_P1;SDS_P2;PMS_P1;PMS_P2;Temp;Humidity;BMP_temperature;BMP_pressure;BME280_temperature;BME280_humidity;BME280_pressure;Samples;Min_cycle;Max_cycle;Signal;HPM_P1;HPM_P2
2022/02/22 00:02:24;;;;;;;26.30;5.25;;;;;;;6.98;75.70;99418.75;5090476;28;20044;-60
2022/02/22 00:04:51;;;;;;;30.38;5.43;;;;;;;6.96;75.55;99417.97;5090599;28;20748;-61
2022/02/22 00:07:18;;;;;;;40.67;6.22;;;;;;;6.95;76.00;99436.38;5089659;28;20059;-62
2022/02/22 00:09:44;;;;;;;24.80;5.50;;;;;;;6.93;76.32;99443.41;5089530;28;20056;-60
2022/02/22 00:12:11;;;;;;;31.25;4.88;;;;;;;6.94;76.62;99445.13;5091117;28;20067;-62
2022/02/22 00:14:38;;;;;;;34.20;5.60;;;;;;;6.93;76.32;99448.66;5091096;28;20071;-62
2022/02/22 00:17:04;;;;;;;33.00;5.45;;;;;;;6.93;76.34;99464.34;5090930;28;20048;-61
2022/02/22 00:19:31;;;;;;;33.55;5.75;;;;;;;6.91;76.30;99461.81;5090126;28;20446;-63
2022/02/22 00:21:57;;;;;;;30.67;5.28;;;;;;;6.92;76.27;99460.91;5090589;28;20048;-61
2022/02/22 00:24:24;;;;;;;29.65;5.15;;;;;;;6.91;76.27;99467.91;5091020;28;20055;-61
2022/02/22 00:26:51;;;;;;;39.47;6.22;;;;;;;6.91;76.08;99474.88;5089198;28;20044;-60
2022/02/22 00:29:17;;;;;;;27.63;5.30;;;;;;;6.90;75.93;99481.91;5090557;28;20484;-60
2022/02/22 00:31:46;;;;;;;32.63;5.43;;;;;;;6.88;75.78;99481.13;5090819;28;20050;-63
2022/02/22 00:34:12;;;;;;;31.80;5.22;;;;;;;6.86;75.54;99490.81;5090462;28;20098;-61
2022/02/22 00:36:39;;;;;;;26.60;5.57;;;;;;;6.85;75.73;99507.44;5090422;28;20048;-61
2022/02/22 00:39:06;;;;;;;43.22;6.00;;;;;;;6.83;76.16;99504.03;5090722;28;20075;-63
2022/02/22 00:41:33;;;;;;;35.92;5.22;;;;;;;6.81;75.65;99502.41;5089155;28;20052;-61
2022/02/22 00:43:59;;;;;;;28.23;4.97;;;;;;;6.77;75.66;99526.09;5090445;28;20726;-62
2022/02/22 00:46:26;;;;;;;33.78;5.10;;;;;;;6.75;76.01;99527.06;5090189;28;20253;-61
2022/02/22 00:48:53;;;;;;;26.77;5.72;;;;;;;6.73;75.92;99531.53;5090161;28;20044;-61
2022/02/22 00:51:20;;;;;;;24.55;4.57;;;;;;;6.71;75.78;99525.50;5089874;28;20507;-61
2022/02/22 00:53:46;;;;;;;31.50;6.03;;;;;;;6.68;75.73;99525.63;5090262;28;20205;-61
2022/02/22 00:56:13;;;;;;;31.85;6.13;;;;;;;6.68;75.82;99530.88;5090295;28;20056;-61
2022/02/22 00:58:40;;;;;;;38.15;5.82;;;;;;;6.65;76.19;99532.72;5072254;28;20048;-62
2022/02/22 01:01:07;;;;;;;29.13;4.72;;;;;;;6.63;76.43;99538.94;5088853;28;20048;-63
2022/02/22 01:03:33;;;;;;;27.63;5.88;;;;;;;6.61;76.03;99552.06;5090009;28;20109;-60
2022/02/22 01:06:00;;;;;;;28.27;4.72;;;;;;;6.60;76.32;99554.75;5090791;28;20056;-61
2022/02/22 01:08:27;;;;;;;25.95;5.43;;;;;;;6.59;76.31;99564.38;5089547;28;20048;-66
2022/02/22 01:10:53;;;;;;;27.75;4.90;;;;;;;6.58;76.36;99552.19;5089416;28;20098;-60
2022/02/22 01:13:21;;;;;;;26.63;5.05;;;;;;;6.58;76.22;99560.06;5090036;28;20404;-59
2022/02/22 01:15:49;;;;;;;24.60;5.53;;;;;;;6.57;76.59;99566.19;5088880;28;20051;-62
2022/02/22 01:18:16;;;;;;;27.40;4.60;;;;;;;6.57;76.37;99574.06;5091666;28;20059;-61
2022/02/22 01:20:43;;;;;;;28.45;5.32;;;;;;;6.56;76.60;99572.34;5093830;28;20044;-60
2022/02/22 01:23:10;;;;;;;35.05;6.07;;;;;;;6.56;76.83;99564.50;5094072;28;20052;-60
2022/02/22 01:25:37;;;;;;;33.65;5.60;;;;;;;6.56;76.93;99569.75;5093964;28;20048;-62
2022/02/22 01:28:03;;;;;;;22.90;5.93;;;;;;;6.57;76.71;99581.91;5093896;28;20048;-61
2022/02/22 01:30:30;;;;;;;32.10;5.43;;;;;;;6.57;76.81;99581.91;5092904;28;20553;-61
2022/02/22 01:32:57;;;;;;;25.13;4.90;;;;;;;6.58;76.62;99583.59;5076002;28;20056;-60
2022/02/22 01:35:23;;;;;;;29.20;5.18;;;;;;;6.58;76.77;99588.81;5092727;28;20055;-62
2022/02/22 01:37:50;;;;;;;28.67;5.97;;;;;;;6.58;76.44;99599.28;5093782;28;20056;-60
2022/02/22 01:40:17;;;;;;;40.30;5.88;;;;;;;6.57;76.16;99596.72;5093591;28;20090;-60
2022/02/22 01:42:45;;;;;;;29.42;5.88;;;;;;;6.56;76.21;99613.34;5093837;28;20047;-62
2022/02/22 01:45:11;;;;;;;40.03;5.97;;;;;;;6.55;76.07;99615.13;5091943;28;20070;-60
2022/02/22 01:47:38;;;;;;;34.13;6.10;;;;;;;6.53;76.26;99616.94;5093538;28;20097;-63
2022/02/22 01:50:08;;;;;;;22.02;4.65;;;;;;;6.51;75.80;99613.56;5093207;28;20055;-61
2022/02/22 01:52:34;;;;;;;26.42;5.03;;;;;;;6.50;76.30;99614.44;5092196;28;20087;-62
2022/02/22 01:55:02;;;;;;;29.52;5.95;;;;;;;6.48;76.00;99611.91;5092297;28;20506;-60
2022/02/22 01:57:29;;;;;;;30.80;5.32;;;;;;;6.46;76.38;99624.19;5092193;28;20048;-61
2022/02/22 01:59:56;;;;;;;27.75;5.22;;;;;;;6.44;76.42;99628.66;5092951;28;20056;-61
2022/02/22 02:02:23;;;;;;;29.30;4.80;;;;;;;6.43;76.14;99626.09;5093051;28;20492;-60
2022/02/22 02:04:49;;;;;;;32.33;5.63;;;;;;;6.42;76.56;99642.72;5093021;28;20048;-61
2022/02/22 02:07:18;;;;;;;35.40;6.28;;;;;;;6.41;76.51;99648.81;5091892;28;20127;-62
2022/02/22 02:09:45;;;;;;;34.30;5.53;;;;;;;6.39;76.58;99644.53;5092684;28;20408;-60
2022/02/22 02:12:13;;;;;;;39.58;5.97;;;;;;;6.39;76.73;99648.88;5092829;28;20048;-60
2022/02/22 02:14:40;;;;;;;32.67;5.88;;;;;;;6.38;76.61;99650.66;5093026;28;20048;-60
2022/02/22 02:17:07;;;;;;;31.75;5.22;;;;;;;6.38;76.99;99661.13;5093002;28;20047;-62
2022/02/22 02:19:33;;;;;;;34.88;6.13;;;;;;;6.38;76.64;99648.06;5091286;28;20078;-61
2022/02/22 02:22:00;;;;;;;26.27;5.40;;;;;;;6.38;76.61;99653.28;5092860;28;20537;-61
2022/02/22 02:24:27;;;;;;;33.85;6.10;;;;;;;6.37;76.84;99656.81;5092817;28;20462;-62
2022/02/22 02:26:55;;;;;;;31.58;5.20;;;;;;;6.38;76.60;99661.13;5091443;28;20048;-61
2022/02/22 02:29:25;;;;;;;31.48;6.22;;;;;;;6.37;76.58;99654.19;5091161;28;20044;-60
2022/02/22 02:31:52;;;;;;;30.13;5.10;;;;;;;6.37;76.06;99664.66;5091087;28;20090;-61
2022/02/22 02:34:28;;;;;;;37.83;6.43;;;;;;;6.33;75.67;99662.22;5090375;28;20424;-60
2022/02/22 02:36:55;;;;;;;26.95;4.72;;;;;;;6.35;76.28;99661.25;5091352;28;20051;-60
2022/02/22 02:39:22;;;;;;;28.80;5.65;;;;;;;6.34;76.09;99659.56;5092072;28;20118;-60
2022/02/22 02:41:49;;;;;;;26.63;5.57;;;;;;;6.32;76.08;99666.59;5092651;28;20385;-61
2022/02/22 02:44:18;;;;;;;25.25;5.05;;;;;;;6.29;76.29;99671.97;5092294;28;20412;-60
2022/02/22 02:46:45;;;;;;;22.50;3.72;;;;;;;6.29;76.13;99666.75;5091180;28;20055;-60
2022/02/22 02:49:13;;;;;;;21.73;4.45;;;;;;;6.28;76.16;99666.78;5090313;28;20556;-61
2022/02/22 02:51:41;;;;;;;27.70;4.53;;;;;;;6.26;76.22;99672.09;5091930;28;20093;-61
2022/02/22 02:54:09;;;;;;;31.73;4.72;;;;;;;6.25;76.38;99680.84;5091976;28;20047;-60
2022/02/22 02:56:36;;;;;;;25.23;4.22;;;;;;;6.24;76.49;99700.03;5092461;28;20086;-61
2022/02/22 02:59:07;;;;;;;30.02;5.13;;;;;;;6.22;75.90;99688.81;5090715;28;20147;-60
2022/02/22 03:01:35;;;;;;;30.92;5.03;;;;;;;6.22;76.20;99686.19;5090808;28;20081;-61
2022/02/22 03:04:03;;;;;;;22.52;4.07;;;;;;;6.22;76.51;99700.13;5091955;28;20048;-61
2022/02/22 03:06:30;;;;;;;28.45;4.55;;;;;;;6.21;76.16;99690.56;5090375;28;20056;-63
2022/02/22 03:08:56;;;;;;;24.83;4.10;;;;;;;6.21;76.22;99689.72;5091431;28;20554;-60
2022/02/22 03:11:23;;;;;;;19.05;4.13;;;;;;;6.20;76.11;99698.47;5091353;28;20048;-59
2022/02/22 03:13:50;;;;;;;23.45;3.72;;;;;;;6.19;76.31;99697.63;5091738;28;20148;-61
2022/02/22 03:16:16;;;;;;;22.77;4.82;;;;;;;6.19;76.06;99701.97;5090248;28;20435;-61
2022/02/22 03:18:45;;;;;;;19.00;4.03;;;;;;;6.17;76.00;99698.59;5090275;28;20048;-61
2022/02/22 03:21:12;;;;;;;26.27;4.68;;;;;;;6.15;75.80;99682.09;5091346;28;20056;-63
2022/02/22 03:23:39;;;;;;;25.50;3.72;;;;;;;6.13;75.83;99696.09;5090738;28;20051;-61
2022/02/22 03:26:06;;;;;;;18.60;4.20;;;;;;;6.13;76.10;99703.94;5091658;28;20052;-63
2022/02/22 03:28:34;;;;;;;24.17;4.68;;;;;;;6.11;75.91;99703.16;5090162;28;20044;-61
2022/02/22 03:31:03;;;;;;;20.55;4.03;;;;;;;6.09;75.94;99706.75;5089744;28;20553;-60
2022/02/22 03:33:34;;;;;;;29.67;4.15;;;;;;;6.06;75.28;99712.09;5089973;28;20130;-62
2022/02/22 03:36:02;;;;;;;24.88;4.35;;;;;;;6.04;75.69;99709.53;5090150;28;20044;-60
2022/02/22 03:38:29;;;;;;;31.48;4.95;;;;;;;6.03;75.81;99718.28;5091412;28;20052;-60
2022/02/22 03:40:56;;;;;;;22.88;4.30;;;;;;;6.01;75.95;99730.50;5090961;28;20051;-60
2022/02/22 03:43:23;;;;;;;20.75;3.63;;;;;;;5.99;75.75;99724.50;5089804;28;20055;-60
2022/02/22 03:45:50;;;;;;;23.00;5.00;;;;;;;5.98;75.93;99718.41;5091269;28;20567;-63
2022/02/22 03:48:17;;;;;;;29.98;4.82;;;;;;;5.97;76.04;99726.31;5091007;28;20044;-60
2022/02/22 03:50:44;;;;;;;16.52;3.67;;;;;;;5.94;76.05;99729.91;5089265;28;20044;-60
2022/02/22 03:53:11;;;;;;;21.58;3.75;;;;;;;5.92;75.97;99734.34;5089838;28;20044;-60
2022/02/22 03:55:43;;;;;;;25.15;4.43;;;;;;;5.90;76.05;99736.13;5091113;28;20040;-59
2022/02/22 03:58:09;;;;;;;24.48;5.50;;;;;;;5.88;76.23;99732.75;5089759;28;20063;-60
2022/02/22 04:00:36;;;;;;;29.08;4.93;;;;;;;5.87;76.21;99742.34;5090805;28;20113;-61
2022/02/22 04:03:03;;;;;;;23.85;4.80;;;;;;;5.86;76.19;99737.16;5091344;28;20068;-60
2022/02/22 04:05:31;;;;;;;26.42;4.63;;;;;;;5.84;76.24;99742.44;5090218;28;20060;-62
2022/02/22 04:07:58;;;;;;;20.88;4.55;;;;;;;5.84;76.39;99736.38;5089637;28;20059;-61
2022/02/22 04:10:25;;;;;;;36.33;4.53;;;;;;;5.83;76.81;99753.81;5090554;28;20052;-60
2022/02/22 04:12:51;;;;;;;28.92;4.57;;;;;;;5.82;77.05;99741.66;5090702;28;20132;-61
2022/02/22 04:15:18;;;;;;;25.70;4.60;;;;;;;5.84;77.33;99744.22;5090906;28;21112;-60
2022/02/22 04:17:46;;;;;;;26.33;4.10;;;;;;;5.85;77.36;99751.16;5089224;28;20052;-61
2022/02/22 04:20:13;;;;;;;32.45;4.85;;;;;;;5.85;77.20;99756.38;5090565;28;20108;-60
2022/02/22 04:22:40;;;;;;;33.08;5.55;;;;;;;5.86;76.80;99758.94;5090867;28;20467;-60
2022/02/22 04:25:07;;;;;;;35.30;5.40;;;;;;;5.87;77.14;99749.34;5090427;28;20051;-61
2022/02/22 04:27:34;;;;;;;32.75;5.93;;;;;;;5.86;77.08;99753.69;5089057;28;20077;-60
2022/02/22 04:30:01;;;;;;;25.67;5.70;;;;;;;5.86;77.02;99764.16;5090498;28;20048;-62
2022/02/22 04:32:27;;;;;;;35.35;5.93;;;;;;;5.87;76.72;99765.03;5090319;28;20052;-63
2022/02/22 04:34:54;;;;;;;32.38;6.15;;;;;;;5.85;76.91;99765.06;5090211;28;20052;-60
2022/02/22 04:37:21;;;;;;;31.63;5.63;;;;;;;5.85;76.93;99772.91;5090012;28;20048;-60
2022/02/22 04:39:52;;;;;;;29.25;5.55;;;;;;;5.84;76.96;99768.56;5090274;28;20180;-61
2022/02/22 04:42:19;;;;;;;28.23;5.63;;;;;;;5.85;76.94;99770.28;5090089;28;20114;-59
2022/02/22 04:44:46;;;;;;;30.52;5.05;;;;;;;5.84;76.73;99760.72;5089054;28;20063;-61
2022/02/22 04:47:13;;;;;;;21.77;4.65;;;;;;;5.84;76.97;99767.75;5089969;28;20569;-61
2022/02/22 04:49:40;;;;;;;31.63;5.32;;;;;;;5.83;77.04;99769.47;5089894;28;20056;-60
2022/02/22 04:52:09;;;;;;;29.77;5.05;;;;;;;5.83;76.67;99764.25;5089634;28;20581;-60
2022/02/22 04:54:37;;;;;;;28.35;4.90;;;;;;;5.82;77.13;99759.94;5092577;28;20550;-60
2022/02/22 04:57:05;;;;;;;37.13;5.03;;;;;;;5.82;76.96;99770.41;5093184;28;20052;-61
2022/02/22 04:59:33;;;;;;;32.45;5.13;;;;;;;5.81;77.09;99773.94;5092912;28;20044;-60
2022/02/22 05:01:59;;;;;;;33.63;5.47;;;;;;;5.80;76.78;99790.50;5092937;28;20055;-63
2022/02/22 05:04:26;;;;;;;23.55;4.30;;;;;;;5.80;76.84;99800.94;5094151;28;20044;-61
2022/02/22 05:06:53;;;;;;;24.05;4.07;;;;;;;5.78;76.88;99792.31;5094107;28;20109;-61
2022/02/22 05:09:21;;;;;;;24.38;4.30;;;;;;;5.77;77.25;99785.41;5093502;28;20052;-60
2022/02/22 05:11:47;;;;;;;28.30;4.63;;;;;;;5.77;76.65;99801.06;5093699;28;20070;-61
2022/02/22 05:14:14;;;;;;;34.70;5.85;;;;;;;5.76;76.69;99793.28;5093645;28;20460;-60
2022/02/22 05:16:40;;;;;;;23.13;4.07;;;;;;;5.73;76.81;99795.09;5093896;28;20429;-62
2022/02/22 05:19:07;;;;;;;24.63;4.13;;;;;;;5.74;76.73;99803.78;5093731;28;20052;-61
2022/02/22 05:21:34;;;;;;;22.70;4.13;;;;;;;5.71;76.86;99796.91;5093958;28;20097;-60
2022/02/22 05:24:02;;;;;;;30.42;3.75;;;;;;;5.70;76.65;99808.28;5093679;28;20040;-60
2022/02/22 05:26:29;;;;;;;33.20;5.05;;;;;;;5.70;76.47;99810.03;5093982;28;20048;-61
2022/02/22 05:28:56;;;;;;;27.27;3.92;;;;;;;5.69;76.41;99797.88;5093092;28;20172;-60
2022/02/22 05:31:23;;;;;;;29.40;4.32;;;;;;;5.67;76.77;99794.44;5093269;28;20462;-62
2022/02/22 05:33:50;;;;;;;23.35;4.10;;;;;;;5.66;76.66;99803.19;5092206;28;20456;-60
2022/02/22 05:36:20;;;;;;;18.40;4.30;;;;;;;5.66;76.25;99811.03;5093102;28;20059;-62
2022/02/22 05:38:48;;;;;;;28.33;4.50;;;;;;;5.64;76.59;99813.69;5091419;28;20052;-60
2022/02/22 05:41:17;;;;;;;24.30;4.00;;;;;;;5.64;76.68;99800.66;5092836;28;20505;-65
2022/02/22 05:43:45;;;;;;;24.73;3.67;;;;;;;5.64;76.92;99812.88;5092151;28;20770;-60
2022/02/22 05:46:13;;;;;;;24.73;4.40;;;;;;;5.63;76.97;99809.38;5091532;28;20051;-61
2022/02/22 05:48:40;;;;;;;21.08;4.40;;;;;;;5.62;76.96;99818.13;5091914;28;20442;-60
2022/02/22 05:51:07;;;;;;;25.67;4.20;;;;;;;5.64;77.22;99823.31;5092253;28;20047;-62
2022/02/22 05:53:34;;;;;;;27.55;3.97;;;;;;;5.65;77.28;99817.19;5091821;28;20097;-61
2022/02/22 05:56:01;;;;;;;23.30;3.88;;;;;;;5.66;77.53;99821.47;5093261;28;20040;-60
2022/02/22 05:58:27;;;;;;;21.60;3.05;;;;;;;5.66;77.54;99819.75;5091807;28;20297;-61
2022/02/22 06:00:54;;;;;;;23.98;3.80;;;;;;;5.69;77.74;99824.00;5091884;28;20081;-60
2022/02/22 06:03:21;;;;;;;21.85;4.75;;;;;;;5.69;77.40;99831.84;5092523;28;20454;-60
2022/02/22 06:05:47;;;;;;;22.40;4.10;;;;;;;5.70;77.55;99833.53;5092701;28;20060;-62
2022/02/22 06:08:15;;;;;;;26.25;4.18;;;;;;;5.71;77.38;99841.31;5093029;28;20511;-60
2022/02/22 06:10:42;;;;;;;24.30;3.78;;;;;;;5.72;77.74;99850.84;5092585;28;20056;-61
2022/02/22 06:13:09;;;;;;;24.77;4.07;;;;;;;5.72;77.70;99861.28;5092776;28;20048;-61
2022/02/22 06:15:35;;;;;;;24.33;4.22;;;;;;;5.74;77.59;99854.28;5092718;28;20048;-63
2022/02/22 06:18:03;;;;;;;35.38;4.57;;;;;;;5.76;77.70;99846.38;5092526;28;20052;-61
2022/02/22 06:20:32;;;;;;;24.08;4.40;;;;;;;5.77;77.97;99848.09;5092352;28;20063;-64
2022/02/22 06:22:59;;;;;;;29.25;4.38;;;;;;;5.79;77.48;99851.47;5091846;28;20044;-63
2022/02/22 06:25:26;;;;;;;20.77;4.25;;;;;;;5.80;77.61;99841.91;5091925;28;20059;-63
2022/02/22 06:27:54;;;;;;;26.02;4.70;;;;;;;5.80;77.62;99840.13;5090538;28;20653;-60
2022/02/22 06:30:24;;;;;;;19.23;3.28;;;;;;;5.81;77.56;99854.91;5090915;28;20080;-63
2022/02/22 06:32:51;;;;;;;21.13;3.72;;;;;;;5.83;77.74;99854.84;5090949;28;20051;-60
2022/02/22 06:35:19;;;;;;;36.75;5.80;;;;;;;5.82;77.64;99838.31;5092208;28;20083;-64
2022/02/22 06:37:46;;;;;;;26.73;4.88;;;;;;;5.85;77.73;99851.28;5091056;28;20059;-63
2022/02/22 06:40:14;;;;;;;20.83;4.00;;;;;;;5.84;77.82;99848.72;5090874;28;20044;-60
2022/02/22 06:42:40;;;;;;;30.42;4.78;;;;;;;5.85;77.37;99850.41;5091999;28;20117;-62
2022/02/22 06:45:09;;;;;;;22.30;4.57;;;;;;;5.85;77.25;99853.88;5091960;28;20056;-61
2022/02/22 06:47:42;;;;;;;30.17;3.72;;;;;;;5.83;77.00;99854.84;5090955;28;20044;-60
2022/02/22 06:50:10;;;;;;;24.10;4.55;;;;;;;5.83;77.24;99863.53;5091280;28;20048;-63
2022/02/22 06:52:39;;;;;;;26.63;4.32;;;;;;;5.84;77.45;99862.63;5091512;28;20048;-60
2022/02/22 06:55:10;;;;;;;22.42;3.85;;;;;;;5.82;77.41;99869.66;5090535;28;20438;-60
2022/02/22 06:57:38;;;;;;;29.33;4.75;;;;;;;5.84;77.65;99869.63;5090445;28;20135;-60
2022/02/22 07:00:10;;;;;;;25.95;4.50;;;;;;;5.82;77.64;99872.28;5090186;28;20492;-60
2022/02/22 07:02:37;;;;;;;31.38;5.10;;;;;;;5.84;77.65;99867.00;5090574;28;20060;-61
2022/02/22 07:05:06;;;;;;;29.80;4.55;;;;;;;5.85;77.64;99868.69;5090183;28;20664;-61
2022/02/22 07:07:33;;;;;;;25.25;4.32;;;;;;;5.86;78.01;99867.78;5090004;28;20044;-62
2022/02/22 07:10:00;;;;;;;33.03;4.70;;;;;;;5.89;78.18;99885.09;5090786;28;20458;-60
2022/02/22 07:12:26;;;;;;;35.33;5.25;;;;;;;5.90;78.08;99879.00;5091333;28;20044;-60
2022/02/22 07:14:53;;;;;;;24.75;4.85;;;;;;;5.92;78.26;99888.50;5091300;28;20155;-61
2022/02/22 07:17:21;;;;;;;32.63;5.18;;;;;;;5.94;78.16;99891.88;5091210;28;20047;-60
2022/02/22 07:19:48;;;;;;;25.88;4.72;;;;;;;5.96;77.87;99886.59;5091033;28;20101;-61
2022/02/22 07:22:14;;;;;;;32.88;5.03;;;;;;;5.96;78.09;99881.38;5091235;28;20048;-60
2022/02/22 07:24:41;;;;;;;37.00;5.28;;;;;;;5.97;78.03;99883.94;5091155;28;20522;-64
2022/02/22 07:27:08;;;;;;;30.48;5.38;;;;;;;5.98;78.16;99892.66;5091430;28;20047;-61
2022/02/22 07:29:34;;;;;;;32.20;5.47;;;;;;;5.99;78.21;99895.19;5090720;28;20052;-61
2022/02/22 07:32:01;;;;;;;30.27;5.15;;;;;;;6.01;78.13;99892.50;5091179;28;20097;-62
2022/02/22 07:34:27;;;;;;;23.33;4.95;;;;;;;6.03;78.14;99884.63;5091014;28;20048;-62
2022/02/22 07:36:54;;;;;;;32.08;5.07;;;;;;;6.02;77.70;99889.00;5091010;28;20056;-61
2022/02/22 07:39:21;;;;;;;24.25;4.65;;;;;;;6.03;77.87;99890.75;5090993;28;20040;-60
2022/02/22 07:41:47;;;;;;;27.20;4.95;;;;;;;6.04;77.62;99886.34;5090865;28;20060;-61
2022/02/22 07:44:14;;;;;;;24.00;4.70;;;;;;;6.04;77.58;99882.00;5090344;28;20492;-61
2022/02/22 07:46:42;;;;;;;30.98;5.28;;;;;;;6.04;77.93;99886.34;5090891;28;20052;-60
2022/02/22 07:49:10;;;;;;;32.88;5.25;;;;;;;6.03;77.78;99897.69;5090648;28;20050;-60
2022/02/22 07:51:36;;;;;;;28.95;5.18;;;;;;;6.02;77.85;99902.06;5090605;28;20046;-62
2022/02/22 07:54:03;;;;;;;29.88;4.82;;;;;;;6.02;77.84;99904.66;5090657;28;20098;-63
2022/02/22 07:56:31;;;;;;;30.70;5.63;;;;;;;6.01;77.66;99900.34;5090322;28;20047;-64
2022/02/22 07:58:58;;;;;;;27.60;5.40;;;;;;;6.01;78.14;99900.34;5090886;28;20044;-61
2022/02/22 08:01:24;;;;;;;30.08;5.47;;;;;;;6.03;78.32;99900.31;5090754;28;20056;-61
2022/02/22 08:03:51;;;;;;;29.80;5.85;;;;;;;6.05;78.54;99888.09;5090731;28;20488;-60
2022/02/22 08:06:17;;;;;;;36.67;6.15;;;;;;;6.06;78.72;99895.84;5089220;28;21135;-61
2022/02/22 08:08:44;;;;;;;33.53;5.65;;;;;;;6.09;78.89;99890.50;5090664;28;20108;-64
2022/02/22 08:11:11;;;;;;;29.38;5.43;;;;;;;6.12;78.58;99890.41;5090027;28;20051;-60
2022/02/22 08:13:37;;;;;;;38.75;5.72;;;;;;;6.18;78.86;99893.69;5090243;28;20097;-61
2022/02/22 08:16:05;;;;;;;29.58;5.40;;;;;;;6.19;78.05;99893.66;5090507;28;20056;-60
2022/02/22 08:18:32;;;;;;;31.55;5.13;;;;;;;6.23;78.90;99892.63;5089166;28;20048;-61
2022/02/22 08:20:58;;;;;;;28.92;5.55;;;;;;;6.27;78.55;99908.22;5089926;28;20052;-61
2022/02/22 08:23:27;;;;;;;38.58;6.22;;;;;;;6.30;78.36;99900.22;5090436;28;20048;-62
2022/02/22 08:25:53;;;;;;;32.45;5.05;;;;;;;6.31;78.43;99905.41;5090213;28;20055;-60
2022/02/22 08:28:20;;;;;;;27.55;5.45;;;;;;;6.34;78.42;99915.75;5090188;28;20094;-61
2022/02/22 08:30:47;;;;;;;38.58;5.57;;;;;;;6.36;78.43;99903.47;5089868;28;20079;-61
2022/02/22 08:33:16;;;;;;;28.67;5.32;;;;;;;6.38;78.71;99906.03;5090053;28;20050;-61
2022/02/22 08:35:43;;;;;;;39.67;5.75;;;;;;;6.42;78.60;99914.63;5090013;28;20048;-60
2022/02/22 08:38:10;;;;;;;35.08;5.53;;;;;;;6.45;78.69;99906.66;5089918;28;20082;-61
2022/02/22 08:40:37;;;;;;;28.27;5.15;;;;;;;6.48;78.92;99911.78;5089824;28;20048;-61
2022/02/22 08:43:04;;;;;;;36.70;5.97;;;;;;;6.51;78.85;99909.91;5089901;28;20105;-61
2022/02/22 08:45:31;;;;;;;34.28;5.20;;;;;;;6.55;78.94;99913.25;5090001;28;20126;-60
2022/02/22 08:48:00;;;;;;;31.40;5.53;;;;;;;6.60;78.54;99913.94;5090053;28;20047;-61
2022/02/22 08:50:27;;;;;;;34.83;4.95;;;;;;;6.64;79.14;99907.69;5089935;28;20052;-61
2022/02/22 08:52:54;;;;;;;33.17;5.15;;;;;;;6.69;78.93;99904.88;5089862;28;20048;-61
2022/02/22 08:55:21;;;;;;;30.42;4.80;;;;;;;6.76;79.41;99915.94;5089880;28;20051;-63
2022/02/22 08:57:48;;;;;;;31.75;5.57;;;;;;;6.82;79.63;99910.50;5090019;28;20052;-60
2022/02/22 09:00:16;;;;;;;30.00;5.70;;;;;;;6.87;79.40;99908.53;5089820;28;20056;-62
2022/02/22 09:02:43;;;;;;;27.83;4.93;;;;;;;6.95;79.88;99907.41;5088521;28;20043;-62
2022/02/22 09:05:10;;;;;;;29.38;5.75;;;;;;;7.04;79.81;99901.81;5089895;28;20098;-61
2022/02/22 09:07:37;;;;;;;36.85;6.60;;;;;;;7.10;79.56;99891.06;5089803;28;20048;-60
2022/02/22 09:10:06;;;;;;;35.47;5.65;;;;;;;7.16;79.30;99877.75;5089474;28;20559;-63
2022/02/22 09:12:33;;;;;;;25.73;5.30;;;;;;;7.24;78.99;99877.44;5088669;28;20559;-61
2022/02/22 09:15:01;;;;;;;37.03;5.57;;;;;;;7.29;78.54;99877.25;5089645;28;20048;-61
2022/02/22 09:17:28;;;;;;;30.85;5.53;;;;;;;7.34;78.60;99871.81;5089615;28;20138;-61
2022/02/22 09:19:57;;;;;;;35.90;5.70;;;;;;;7.37;78.58;99869.06;5089487;28;20110;-61
2022/02/22 09:22:24;;;;;;;32.25;5.35;;;;;;;7.39;78.28;99872.44;5089816;28;20090;-60
2022/02/22 09:24:51;;;;;;;30.77;5.80;;;;;;;7.41;78.10;99871.47;5088373;28;20492;-61
2022/02/22 09:27:18;;;;;;;24.60;5.32;;;;;;;7.45;78.20;99871.34;5089270;28;20059;-61
2022/02/22 09:29:46;;;;;;;30.15;4.68;;;;;;;7.49;78.79;99870.31;5089060;28;20586;-61
2022/02/22 09:32:13;;;;;;;28.35;5.30;;;;;;;7.51;78.63;99869.31;5089395;28;20050;-70
2022/02/22 09:34:40;;;;;;;35.97;5.20;;;;;;;7.55;78.71;99864.78;5089681;28;20076;-60
2022/02/22 09:37:09;;;;;;;33.00;5.18;;;;;;;7.59;78.77;99866.38;5089540;28;20521;-61
2022/02/22 09:39:38;;;;;;;28.50;5.15;;;;;;;7.63;78.71;99860.06;5090107;28;20454;-60
2022/02/22 09:42:09;;;;;;;30.45;4.95;;;;;;;7.66;78.62;99857.34;5093296;28;20055;-60
2022/02/22 09:44:37;;;;;;;32.40;5.80;;;;;;;7.73;78.78;99854.47;5091274;28;20149;-60
2022/02/22 09:47:06;;;;;;;32.97;5.20;;;;;;;7.77;78.84;99853.38;5091883;28;20113;-62
2022/02/22 09:49:33;;;;;;;28.52;5.72;;;;;;;7.84;78.81;99854.81;5092808;28;20050;-61
2022/02/22 09:52:00;;;;;;;24.02;5.18;;;;;;;7.91;79.40;99844.91;5091857;28;20135;-61
2022/02/22 09:54:28;;;;;;;27.17;5.28;;;;;;;7.98;79.42;99842.88;5093109;28;20055;-60
2022/02/22 09:56:56;;;;;;;22.55;4.72;;;;;;;8.06;79.15;99835.53;5092447;28;20080;-62
2022/02/22 09:59:24;;;;;;;26.95;5.07;;;;;;;8.13;78.80;99836.94;5091080;28;20698;-60
2022/02/22 10:01:53;;;;;;;23.08;5.95;;;;;;;8.17;77.74;99842.91;5091659;28;20052;-61
2022/02/22 10:04:21;;;;;;;23.67;4.93;;;;;;;8.22;78.31;99833.03;5092398;28;20046;-60
2022/02/22 10:06:50;;;;;;;24.05;5.50;;;;;;;8.29;78.81;99838.84;5091559;28;20047;-60
2022/02/22 10:09:17;;;;;;;29.65;5.28;;;;;;;8.33;77.98;99832.53;5091235;28;20048;-63
2022/02/22 10:11:50;;;;;;;27.77;5.78;;;;;;;8.35;76.73;99830.72;5092435;28;20048;-63
2022/02/22 10:14:32;;;;;;;25.10;5.53;;;;;;;8.38;75.76;99827.09;5091587;28;20048;-61
2022/02/22 10:16:59;;;;;;;27.70;5.50;;;;;;;8.43;77.53;99828.59;5092777;28;20080;-60
2022/02/22 10:19:27;;;;;;;26.80;5.63;;;;;;;8.45;76.96;99825.91;5092522;28;20048;-61
2022/02/22 10:21:56;;;;;;;24.92;5.53;;;;;;;8.48;77.58;99831.84;5092211;28;20056;-59
2022/02/22 10:24:28;;;;;;;30.23;5.25;;;;;;;8.48;76.90;99831.84;5091376;28;20052;-59
2022/02/22 10:27:04;;;;;;;25.58;4.50;;;;;;;8.43;72.93;99827.72;5091218;28;20044;-63
2022/02/22 10:29:33;;;;;;;25.73;5.93;;;;;;;8.46;76.31;99846.78;5092353;28;20062;-61
2022/02/22 10:32:14;;;;;;;18.25;3.65;;;;;;;8.42;74.17;99837.38;5091072;28;20059;-60
2022/02/22 10:34:42;;;;;;;30.88;5.07;;;;;;;8.46;76.70;99845.94;5091249;28;20063;-63
2022/02/22 10:37:10;;;;;;;25.05;4.65;;;;;;;8.45;76.20;99842.47;5091986;28;20494;-62
2022/02/22 10:39:37;;;;;;;21.75;4.95;;;;;;;8.44;76.26;99834.66;5092211;28;20056;-63
2022/02/22 10:42:05;;;;;;;27.75;5.32;;;;;;;8.45;76.52;99834.59;5092126;28;20109;-61
2022/02/22 10:44:35;;;;;;;21.63;5.18;;;;;;;8.47;75.57;99850.28;5092263;28;20105;-61
2022/02/22 10:47:16;;;;;;;20.88;3.97;;;;;;;8.45;74.71;99842.47;5092373;28;20099;-60
2022/02/22 10:49:43;;;;;;;24.92;4.07;;;;;;;8.50;75.83;99833.53;5091713;28;20079;-61
2022/02/22 10:52:11;;;;;;;24.30;4.75;;;;;;;8.48;75.31;99830.97;5089603;28;20044;-60
2022/02/22 10:54:41;;;;;;;17.27;3.88;;;;;;;8.52;76.03;99842.19;5091991;28;20052;-61
2022/02/22 10:57:09;;;;;;;20.33;3.90;;;;;;;8.54;75.33;99830.75;5091807;28;20102;-61
2022/02/22 10:59:36;;;;;;;15.25;3.10;;;;;;;8.57;75.46;99827.13;5091743;28;20051;-63
2022/02/22 11:02:03;;;;;;;17.23;3.63;;;;;;;8.59;75.27;99823.50;5091622;28;20131;-60
2022/02/22 11:04:34;;;;;;;20.45;3.40;;;;;;;8.62;75.15;99814.63;5091809;28;20044;-60
2022/02/22 11:07:01;;;;;;;18.90;3.72;;;;;;;8.66;75.54;99797.81;5091539;28;20492;-60
2022/02/22 11:09:28;;;;;;;19.63;4.28;;;;;;;8.69;74.65;99792.41;5091688;28;20055;-59
2022/02/22 11:12:04;;;;;;;15.80;3.40;;;;;;;8.71;73.71;99780.06;5091574;28;20083;-61
2022/02/22 11:14:34;;;;;;;13.23;3.22;;;;;;;8.78;74.17;99790.28;5089943;28;20044;-60
2022/02/22 11:17:14;;;;;;;24.88;3.95;;;;;;;8.78;71.33;99771.91;5091414;28;20122;-61
2022/02/22 11:19:45;;;;;;;14.13;3.13;;;;;;;8.88;74.87;99761.75;5090626;28;20058;-61
2022/02/22 11:22:19;;;;;;;17.85;4.25;;;;;;;8.88;73.27;99767.88;5090032;28;20055;-60
2022/02/22 11:24:51;;;;;;;18.92;4.85;;;;;;;8.89;73.62;99761.69;5091356;28;20086;-60
2022/02/22 11:27:32;;;;;;;15.07;3.63;;;;;;;8.89;70.83;99755.63;5089771;28;20049;-61
2022/02/22 11:30:06;;;;;;;17.42;3.85;;;;;;;8.92;73.15;99742.31;5089751;28;20047;-61
2022/02/22 11:33:08;;;;;;;20.45;4.00;;;;;;;8.90;70.13;99734.50;5089857;28;20101;-61
2022/02/22 11:36:07;;;;;;;21.02;3.90;;;;;;;8.93;70.13;99723.03;5086656;28;20516;-61
2022/02/22 11:38:46;;;;;;;26.95;4.72;;;;;;;8.98;72.92;99729.72;5069417;28;20041;-59